Overview Statistics Trail Chart Weather Telemetry Raw packets
 

This is the latest recevied weather packets stored in our database for station/object VK5GR-12. If no packets are shown the sender has not sent any weather packets the latest 10 day(s).

<< 26 27 28 29 30 31 32 >>
Time Temp. Humidity Pressure Rain* Wind** Luminosity Snow
1788044368 11.11° C 77% 1034.6 hPa 0 mm - 142 W/m² -
1788043465 10° C 82% 1034.7 hPa 0 mm - 107 W/m² -
1788042560 9.44° C 83% 1034.4 hPa 0 mm - 34 W/m² -
1788041657 9.44° C 84% 1034.4 hPa 0 mm - 31 W/m² -
1788040756 8.89° C 85% 1034 hPa 0 mm - 27 W/m² -
1788039852 8.89° C 86% 1033.7 hPa 0 mm - 22 W/m² -
1788038949 8.33° C 86% 1033.6 hPa 0 mm - 14 W/m² -
1788038045 8.33° C 87% 1033.5 hPa 0 mm - 6 W/m² -
1788037145 7.78° C 87% 1033.3 hPa 0 mm - 1 W/m² -
1788036242 7.78° C 86% 1033.2 hPa 0 mm - 0 W/m² -
1788035338 7.78° C 84% 1033.3 hPa 0 mm - 0 W/m² -
1788034438 7.78° C 82% 1033.3 hPa 0 mm - 0 W/m² -
1788033539 7.78° C 80% 1033.1 hPa 0 mm - 0 W/m² -
1788032634 7.78° C 77% 1033 hPa 0 mm - 0 W/m² -
1788031732 7.78° C 75% 1033 hPa 0 mm - 0 W/m² -
1788030831 8.33° C 71% 1032.6 hPa 0 mm - 0 W/m² -
1788029927 8.89° C 68% 1032.5 hPa 0 mm - 0 W/m² -
1788029022 9.44° C 63% 1032.6 hPa 0 mm - 0 W/m² -
1788028118 10° C 65% 1032.5 hPa 0 mm - 0 W/m² -
1788027213 10° C 68% 1032.6 hPa 0 mm - 0 W/m² -
1788026314 10° C 70% 1032.6 hPa 0 mm - 0 W/m² -
1788025414 10° C 70% 1032.7 hPa 0 mm - 0 W/m² -
1788024511 10.56° C 69% 1032.8 hPa 0 mm - 0 W/m² -
1788023607 10.56° C 68% 1033 hPa 0 mm - 0 W/m² -
1788022708 11.11° C 67% 1033 hPa 0 mm - 0 W/m² -

* Rain latest hour (hover to see other rain measurements)
** Current wind speed in m/s (hover to see current wind gust speed)